Time;durP1;ratioP1;P1;durP2;ratioP2;P2;SDS_P1;SDS_P2;PMS_P1;PMS_P2;Temp;Humidity;BMP_temperature;BMP_pressure;BME280_temperature;BME280_humidity;BME280_pressure;Samples;Min_cycle;Max_cycle;Signal;HPM_P1;HPM_P2
2021/05/29 00:00:42;;;;;;;5.88;4.90;;;15.40;99.90;;;;;;5093809;28;20173;-80
2021/05/29 00:03:08;;;;;;;4.95;4.10;;;15.40;99.90;;;;;;5093398;28;20166;-79
2021/05/29 00:05:33;;;;;;;4.85;4.25;;;15.50;99.90;;;;;;5094232;28;20165;-80
2021/05/29 00:07:59;;;;;;;8.73;5.13;;;15.60;99.90;;;;;;5093986;28;20205;-79
2021/05/29 00:10:24;;;;;;;6.60;4.20;;;15.40;99.90;;;;;;5094098;28;20186;-81
2021/05/29 00:12:50;;;;;;;5.13;3.85;;;15.40;99.90;;;;;;5094009;28;20226;-80
2021/05/29 00:15:16;;;;;;;11.10;5.07;;;15.30;99.90;;;;;;5093613;28;20534;-78
2021/05/29 00:17:42;;;;;;;5.07;4.57;;;15.30;99.90;;;;;;5094032;28;20173;-80
2021/05/29 00:20:09;;;;;;;5.88;5.30;;;15.30;99.90;;;;;;5093595;28;20182;-78
2021/05/29 00:22:34;;;;;;;7.90;5.03;;;15.40;99.90;;;;;;5093952;28;20162;-79
2021/05/29 00:25:00;;;;;;;9.40;5.43;;;15.40;99.90;;;;;;5093705;28;20644;-81
2021/05/29 00:27:25;;;;;;;6.78;5.35;;;15.40;99.90;;;;;;5093685;28;20177;-81
2021/05/29 00:29:51;;;;;;;5.38;4.53;;;15.40;99.90;;;;;;5093325;28;20220;-80
2021/05/29 00:32:16;;;;;;;5.88;4.22;;;15.20;99.90;;;;;;5075173;28;20166;-80
2021/05/29 00:34:42;;;;;;;8.85;5.38;;;15.20;99.90;;;;;;5093680;28;20166;-79
2021/05/29 00:37:07;;;;;;;6.53;4.47;;;15.20;99.90;;;;;;5093525;28;20188;-79
2021/05/29 00:39:33;;;;;;;6.15;5.00;;;15.20;99.90;;;;;;5093377;28;20217;-79
2021/05/29 00:41:59;;;;;;;5.30;4.38;;;15.30;99.90;;;;;;5075518;28;20161;-78
2021/05/29 00:44:25;;;;;;;10.45;4.40;;;15.30;99.90;;;;;;5093318;28;20178;-81
2021/05/29 00:46:51;;;;;;;4.97;4.47;;;15.20;99.90;;;;;;5075245;28;20173;-78
2021/05/29 00:49:16;;;;;;;5.75;4.30;;;15.30;99.90;;;;;;5092999;28;20209;-81
2021/05/29 00:51:42;;;;;;;5.45;4.15;;;15.30;99.90;;;;;;5092766;28;20162;-79
2021/05/29 00:54:11;;;;;;;9.77;4.63;;;15.30;99.90;;;;;;5093042;28;20166;-80
2021/05/29 00:56:36;;;;;;;13.02;4.90;;;15.30;99.90;;;;;;5093181;28;20188;-80
2021/05/29 00:59:03;;;;;;;5.60;5.07;;;15.10;99.90;;;;;;5092898;28;20634;-79
2021/05/29 01:01:28;;;;;;;7.18;4.90;;;15.20;99.90;;;;;;5093055;28;20257;-81
2021/05/29 01:03:54;;;;;;;5.88;4.38;;;15.10;99.90;;;;;;5093121;28;20256;-80
2021/05/29 01:06:20;;;;;;;4.78;4.30;;;15.40;99.90;;;;;;5093314;28;20162;-80
2021/05/29 01:08:45;;;;;;;6.40;4.63;;;15.60;99.90;;;;;;5092644;28;20245;-79
2021/05/29 01:11:11;;;;;;;7.60;4.93;;;15.70;99.90;;;;;;5092794;28;20217;-80
2021/05/29 01:13:38;;;;;;;5.88;4.40;;;15.70;99.90;;;;;;5092670;28;20170;-79
2021/05/29 01:16:16;;;;;;;5.43;4.20;;;15.60;99.90;;;;;;5092489;28;20154;-81
2021/05/29 01:18:42;;;;;;;5.07;4.38;;;15.70;99.90;;;;;;5092604;28;20190;-80
2021/05/29 01:21:07;;;;;;;5.72;4.95;;;15.70;99.90;;;;;;5092604;28;20656;-81
2021/05/29 01:23:33;;;;;;;4.80;4.30;;;15.60;99.90;;;;;;5092715;28;20209;-80
2021/05/29 01:25:58;;;;;;;4.97;4.50;;;15.70;99.90;;;;;;5092592;28;20242;-80
2021/05/29 01:28:28;;;;;;;5.75;4.88;;;15.80;99.90;;;;;;5091901;28;20585;-79
2021/05/29 01:31:02;;;;;;;6.38;4.60;;;15.70;99.90;;;;;;5092646;28;20174;-79
2021/05/29 01:33:36;;;;;;;5.78;4.05;;;15.70;99.90;;;;;;5092647;28;20165;-80
2021/05/29 01:36:11;;;;;;;4.72;4.28;;;15.80;99.90;;;;;;5074475;28;20169;-80
2021/05/29 01:38:39;;;;;;;5.63;4.00;;;15.80;99.90;;;;;;5092227;28;20212;-81
2021/05/29 01:41:11;;;;;;;5.40;4.60;;;15.80;99.90;;;;;;5057216;28;20165;-81
2021/05/29 01:43:38;;;;;;;6.68;4.68;;;15.90;99.90;;;;;;5092231;28;20158;-81
2021/05/29 01:46:05;;;;;;;6.78;4.80;;;15.70;99.90;;;;;;5092400;28;20174;-80
2021/05/29 01:48:34;;;;;;;5.72;4.60;;;15.50;99.90;;;;;;5092271;28;20210;-81
2021/05/29 01:51:00;;;;;;;6.55;5.43;;;15.40;99.90;;;;;;5091704;28;20212;-79
2021/05/29 01:53:26;;;;;;;8.30;5.25;;;15.20;99.90;;;;;;5091465;28;20734;-78
2021/05/29 01:55:52;;;;;;;5.38;4.85;;;15.30;99.90;;;;;;5092385;28;20169;-80
2021/05/29 01:58:18;;;;;;;5.90;5.30;;;15.30;99.90;;;;;;5092388;28;20193;-81
2021/05/29 02:00:44;;;;;;;5.20;4.63;;;15.20;99.90;;;;;;5092445;28;20188;-79
2021/05/29 02:03:10;;;;;;;11.52;5.25;;;15.40;99.90;;;;;;5095466;28;20170;-79
2021/05/29 02:05:38;;;;;;;6.22;5.63;;;15.30;99.90;;;;;;5100376;28;20166;-77
2021/05/29 02:08:07;;;;;;;6.85;5.07;;;15.20;99.90;;;;;;5117544;28;20365;-79
2021/05/29 02:10:34;;;;;;;6.55;5.25;;;15.30;99.90;;;;;;5098407;28;20182;-79
2021/05/29 02:13:07;;;;;;;5.95;4.90;;;15.20;99.90;;;;;;5110667;28;20162;-80
2021/05/29 02:15:38;;;;;;;10.85;6.70;;;15.00;99.90;;;;;;5096382;28;20648;-80
2021/05/29 02:18:10;;;;;;;5.95;5.45;;;14.90;99.90;;;;;;5092602;28;20177;-81
2021/05/29 02:20:41;;;;;;;5.75;4.80;;;14.70;99.90;;;;;;5092684;28;20256;-79
2021/05/29 02:23:08;;;;;;;5.90;5.22;;;14.80;99.90;;;;;;5092625;28;20188;-81
2021/05/29 02:25:33;;;;;;;8.93;5.50;;;14.70;99.90;;;;;;5092745;28;20249;-81
2021/05/29 02:28:00;;;;;;;6.72;5.50;;;14.50;99.90;;;;;;5092787;28;20280;-81
2021/05/29 02:30:26;;;;;;;7.15;5.20;;;14.60;99.90;;;;;;5092299;28;20182;-80
2021/05/29 02:32:51;;;;;;;5.22;4.68;;;14.40;99.90;;;;;;5092283;28;20268;-80
2021/05/29 02:35:17;;;;;;;5.13;4.68;;;14.40;99.90;;;;;;5074985;28;20165;-81
2021/05/29 02:37:44;;;;;;;12.45;4.32;;;14.30;99.90;;;;;;5092631;28;20166;-80
2021/05/29 02:40:11;;;;;;;6.03;4.72;;;14.30;99.90;;;;;;5096235;28;20182;-81
2021/05/29 02:42:36;;;;;;;7.25;4.72;;;14.30;99.90;;;;;;5096222;28;20249;-82
2021/05/29 02:45:03;;;;;;;5.45;4.95;;;14.20;99.90;;;;;;5095778;28;20257;-81
2021/05/29 02:47:29;;;;;;;24.40;5.70;;;14.10;99.90;;;;;;5095766;28;20174;-81
2021/05/29 02:49:54;;;;;;;9.20;5.25;;;14.00;99.90;;;;;;5095804;28;20545;-79
2021/05/29 02:52:20;;;;;;;8.30;5.57;;;14.00;99.90;;;;;;5096863;28;20201;-80
2021/05/29 02:54:45;;;;;;;8.30;5.25;;;14.00;99.90;;;;;;5096164;28;20223;-79
2021/05/29 02:57:12;;;;;;;7.32;5.82;;;13.90;99.90;;;;;;5096504;28;20166;-81
2021/05/29 02:59:38;;;;;;;6.57;5.88;;;13.70;99.90;;;;;;5095599;28;20189;-82
2021/05/29 03:02:08;;;;;;;6.00;5.47;;;13.70;99.90;;;;;;5095937;28;20172;-80
2021/05/29 03:04:34;;;;;;;5.03;4.53;;;13.60;99.90;;;;;;5096295;28;20168;-80
2021/05/29 03:07:00;;;;;;;6.07;5.53;;;13.60;99.90;;;;;;5095984;28;20161;-81
2021/05/29 03:09:27;;;;;;;14.80;6.15;;;13.50;99.90;;;;;;5095380;28;20213;-81
2021/05/29 03:11:52;;;;;;;8.05;5.25;;;13.40;99.90;;;;;;5095436;28;20211;-80
2021/05/29 03:14:18;;;;;;;6.32;5.63;;;13.30;99.90;;;;;;5094664;28;20174;-79
2021/05/29 03:16:44;;;;;;;7.07;6.30;;;13.20;99.90;;;;;;5095898;28;20173;-79
2021/05/29 03:19:09;;;;;;;7.07;6.28;;;13.20;99.90;;;;;;5095291;28;20657;-80
2021/05/29 03:21:35;;;;;;;6.90;5.60;;;13.10;99.90;;;;;;5095417;28;20214;-79
2021/05/29 03:24:00;;;;;;;6.00;5.50;;;13.20;99.90;;;;;;5095029;28;20252;-79
2021/05/29 03:26:26;;;;;;;7.05;5.90;;;13.20;99.90;;;;;;5094914;28;20527;-80
2021/05/29 03:28:52;;;;;;;6.95;6.22;;;13.10;99.90;;;;;;5094555;28;20685;-79
2021/05/29 03:31:18;;;;;;;6.05;5.50;;;13.20;99.90;;;;;;5076758;28;20280;-78
2021/05/29 03:33:44;;;;;;;9.20;6.22;;;13.10;99.90;;;;;;5094994;28;20166;-79
2021/05/29 03:36:09;;;;;;;7.18;6.38;;;13.20;99.90;;;;;;5095206;28;20173;-80
2021/05/29 03:38:35;;;;;;;9.75;6.75;;;13.00;99.90;;;;;;5095053;28;20193;-81
2021/05/29 03:41:01;;;;;;;7.15;6.50;;;13.00;99.90;;;;;;5095123;28;20170;-79
2021/05/29 03:43:27;;;;;;;6.15;5.65;;;13.00;99.90;;;;;;5094909;28;20165;-79
2021/05/29 03:45:52;;;;;;;6.93;6.15;;;12.90;99.90;;;;;;5094887;28;20174;-80
2021/05/29 03:48:18;;;;;;;6.68;6.07;;;12.70;99.90;;;;;;5094756;28;20227;-80
2021/05/29 03:50:44;;;;;;;8.48;6.72;;;12.90;99.90;;;;;;5094020;28;20177;-80
2021/05/29 03:53:09;;;;;;;7.75;6.63;;;12.90;99.90;;;;;;5094744;28;20214;-81
2021/05/29 03:55:35;;;;;;;10.38;5.63;;;12.90;99.90;;;;;;5094802;28;20162;-80
2021/05/29 03:58:02;;;;;;;16.33;6.35;;;12.80;99.90;;;;;;5094734;28;20162;-81
2021/05/29 04:00:29;;;;;;;6.95;6.43;;;12.90;99.90;;;;;;5093880;28;20192;-79
2021/05/29 04:02:55;;;;;;;10.63;6.88;;;12.70;99.90;;;;;;5095025;28;20158;-80
2021/05/29 04:05:22;;;;;;;6.75;6.15;;;12.70;99.90;;;;;;5094071;28;20679;-79
2021/05/29 04:07:49;;;;;;;11.75;7.15;;;13.10;99.90;;;;;;5093859;28;20231;-79
2021/05/29 04:10:22;;;;;;;8.95;5.65;;;13.50;99.90;;;;;;5093742;28;20528;-81
2021/05/29 04:12:48;;;;;;;13.25;6.25;;;13.70;99.90;;;;;;5093864;28;20521;-80
2021/05/29 04:15:15;;;;;;;5.85;5.30;;;13.60;99.90;;;;;;5094044;28;20244;-81
2021/05/29 04:17:42;;;;;;;7.13;5.88;;;13.30;99.90;;;;;;5094112;28;20176;-79
2021/05/29 04:20:09;;;;;;;11.18;7.00;;;13.40;99.90;;;;;;5093636;28;20197;-80
2021/05/29 04:22:35;;;;;;;13.93;5.88;;;13.50;99.90;;;;;;5075515;28;20205;-80
2021/05/29 04:25:01;;;;;;;7.88;5.90;;;13.60;99.90;;;;;;5093785;28;20166;-80
2021/05/29 04:27:26;;;;;;;9.45;6.47;;;13.50;99.90;;;;;;5093852;28;20181;-80
2021/05/29 04:29:53;;;;;;;7.40;6.78;;;13.20;99.90;;;;;;5093635;28;20220;-80
2021/05/29 04:32:19;;;;;;;8.20;6.78;;;13.10;99.90;;;;;;5093803;28;20204;-81
2021/05/29 04:34:45;;;;;;;6.97;6.38;;;13.30;99.90;;;;;;5094009;28;20178;-81
2021/05/29 04:37:13;;;;;;;7.15;6.05;;;13.40;99.90;;;;;;5093550;28;20165;-80
2021/05/29 04:39:38;;;;;;;7.75;7.00;;;13.40;99.90;;;;;;5093583;28;20189;-80
2021/05/29 04:42:04;;;;;;;7.28;6.63;;;13.30;99.90;;;;;;5093357;28;20173;-81
2021/05/29 04:44:30;;;;;;;18.27;7.50;;;13.40;99.90;;;;;;5093393;28;20168;-81
2021/05/29 04:47:00;;;;;;;8.82;7.18;;;13.50;99.90;;;;;;5075188;28;20180;-80
2021/05/29 04:49:27;;;;;;;7.18;6.57;;;13.50;99.90;;;;;;5094100;28;20201;-81
2021/05/29 04:51:52;;;;;;;8.70;7.13;;;13.60;99.90;;;;;;5097074;28;20168;-79
2021/05/29 04:54:18;;;;;;;6.82;6.15;;;13.60;99.90;;;;;;5112642;28;20209;-79
2021/05/29 04:56:43;;;;;;;7.85;6.15;;;13.60;99.90;;;;;;5110978;28;20174;-78
2021/05/29 04:59:09;;;;;;;7.95;6.90;;;13.60;99.90;;;;;;5115494;28;20198;-79
2021/05/29 05:01:35;;;;;;;8.50;6.63;;;13.60;99.90;;;;;;5099486;28;20260;-79
2021/05/29 05:04:02;;;;;;;8.68;6.45;;;13.30;99.90;;;;;;5093658;28;20266;-80
2021/05/29 05:06:29;;;;;;;6.85;6.25;;;13.30;99.90;;;;;;5093360;28;20197;-79
2021/05/29 05:08:55;;;;;;;9.88;6.60;;;13.30;99.90;;;;;;5092778;28;20240;-81
2021/05/29 05:11:21;;;;;;;7.45;6.72;;;13.60;99.90;;;;;;5092959;28;20181;-81
2021/05/29 05:13:47;;;;;;;7.50;6.80;;;13.80;99.90;;;;;;5093063;28;20162;-80
2021/05/29 05:16:16;;;;;;;7.88;7.00;;;13.80;99.90;;;;;;5092967;28;20260;-80
2021/05/29 05:18:42;;;;;;;6.80;6.15;;;13.90;99.90;;;;;;5093033;28;20185;-81
2021/05/29 05:21:08;;;;;;;8.93;6.40;;;14.10;99.90;;;;;;5075047;28;20158;-80
2021/05/29 05:23:35;;;;;;;9.18;7.57;;;14.30;99.90;;;;;;5092868;28;20193;-81
2021/05/29 05:26:01;;;;;;;8.52;7.35;;;14.30;99.90;;;;;;5092938;28;20161;-81
2021/05/29 05:28:28;;;;;;;8.60;5.88;;;14.40;99.90;;;;;;5092614;28;20213;-80
2021/05/29 05:31:03;;;;;;;6.82;6.15;;;14.30;99.90;;;;;;5092601;28;20165;-80
2021/05/29 05:33:33;;;;;;;8.02;7.20;;;14.40;99.90;;;;;;5092631;28;20158;-81
2021/05/29 05:36:00;;;;;;;7.78;6.97;;;14.60;99.90;;;;;;5092609;28;20181;-81
2021/05/29 05:38:25;;;;;;;7.75;6.72;;;14.70;99.90;;;;;;5092597;28;20218;-80
2021/05/29 05:40:52;;;;;;;6.63;6.03;;;14.80;99.90;;;;;;5092960;28;20252;-80
2021/05/29 05:43:18;;;;;;;16.65;6.55;;;14.80;99.90;;;;;;5092770;28;20520;-79
2021/05/29 05:45:44;;;;;;;8.68;7.60;;;14.90;99.90;;;;;;5092368;28;20692;-81
2021/05/29 05:48:10;;;;;;;7.95;7.15;;;14.90;99.90;;;;;;5092237;28;20216;-80
2021/05/29 05:50:51;;;;;;;9.68;7.32;;;14.70;99.90;;;;;;5092457;28;20626;-81
2021/05/29 05:53:16;;;;;;;7.53;6.93;;;14.70;99.90;;;;;;5092481;28;20161;-80
2021/05/29 05:55:42;;;;;;;9.55;7.20;;;14.80;99.90;;;;;;5074500;28;20180;-80
2021/05/29 05:58:08;;;;;;;7.90;7.10;;;14.70;99.90;;;;;;5092483;28;20174;-80
2021/05/29 06:00:33;;;;;;;9.73;6.57;;;14.90;99.90;;;;;;5092863;28;20622;-81
2021/05/29 06:02:59;;;;;;;7.55;6.78;;;15.00;99.90;;;;;;5092620;28;20177;-81
2021/05/29 06:05:25;;;;;;;8.05;7.05;;;15.10;99.90;;;;;;5092712;28;20509;-80
2021/05/29 06:07:50;;;;;;;10.80;7.78;;;15.20;99.90;;;;;;5074144;28;20238;-82
2021/05/29 06:10:18;;;;;;;8.32;7.63;;;15.30;99.90;;;;;;5092625;28;20186;-82
2021/05/29 06:12:47;;;;;;;7.60;6.93;;;15.50;99.90;;;;;;5093081;28;20206;-82
2021/05/29 06:20:23;;;;;;;7.53;6.43;;;15.60;99.90;;;;;;5095823;28;20671;-81
2021/05/29 06:22:49;;;;;;;8.18;7.35;;;15.60;99.90;;;;;;5095786;28;20182;-80
2021/05/29 06:25:15;;;;;;;7.57;6.90;;;15.50;99.90;;;;;;5095803;28;20166;-80
2021/05/29 06:27:41;;;;;;;8.90;7.07;;;15.50;99.90;;;;;;5095884;28;20169;-81
2021/05/29 06:30:09;;;;;;;8.70;7.32;;;15.60;99.90;;;;;;5095409;28;20714;-80
2021/05/29 06:32:36;;;;;;;6.80;6.30;;;15.80;99.90;;;;;;5095138;28;20172;-80
2021/05/29 06:35:06;;;;;;;8.20;7.28;;;16.10;99.90;;;;;;5095525;28;20162;-79
2021/05/29 06:37:32;;;;;;;7.65;6.95;;;16.10;99.90;;;;;;5095669;28;20250;-80
2021/05/29 06:39:58;;;;;;;9.07;7.30;;;16.30;99.90;;;;;;5077398;28;20225;-81
2021/05/29 06:42:24;;;;;;;7.65;6.80;;;16.40;99.90;;;;;;5077405;28;20250;-80
2021/05/29 06:44:49;;;;;;;7.45;6.65;;;16.40;99.90;;;;;;5095536;28;20185;-80
2021/05/29 06:47:15;;;;;;;6.18;5.55;;;16.20;99.90;;;;;;5096088;28;20165;-80
2021/05/29 06:49:42;;;;;;;6.28;5.70;;;16.30;99.90;;;;;;5095570;28;20245;-80
2021/05/29 06:52:11;;;;;;;6.50;5.90;;;16.40;99.90;;;;;;5095334;28;20193;-81
2021/05/29 07:00:08;;;;;;;7.88;4.63;;;17.00;99.90;;;;;;5095465;28;20197;-81
2021/05/29 07:02:35;;;;;;;7.10;5.15;;;17.90;99.90;;;;;;5095100;28;20158;-81
2021/05/29 07:05:02;;;;;;;5.25;4.85;;;18.50;99.90;;;;;;5094826;28;20205;-79
2021/05/29 07:07:29;;;;;;;6.53;5.43;;;19.20;99.90;;;;;;5094667;28;20231;-80
2021/05/29 07:09:56;;;;;;;4.70;4.18;;;19.40;99.90;;;;;;5076345;28;20324;-82
2021/05/29 07:12:22;;;;;;;4.43;4.10;;;20.20;99.90;;;;;;5094906;28;20494;-82
2021/05/29 07:14:47;;;;;;;7.13;4.70;;;21.00;99.90;;;;;;5094792;28;20227;-81
2021/05/29 07:17:14;;;;;;;4.28;3.80;;;22.00;99.90;;;;;;5094248;28;20190;-86
2021/05/29 07:19:40;;;;;;;5.32;4.82;;;22.60;99.90;;;;;;5094445;28;20204;-83
2021/05/29 07:22:05;;;;;;;7.85;4.13;;;21.60;99.90;;;;;;5094796;28;20162;-86
2021/05/29 07:24:35;;;;;;;5.03;4.63;;;22.50;99.90;;;;;;5094819;28;20252;-88
2021/05/29 07:27:03;;;;;;;5.57;5.05;;;22.90;99.90;;;;;;5106531;28;20229;-80
2021/05/29 07:29:29;;;;;;;4.90;4.50;;;23.30;99.90;;;;;;5100317;28;20313;-84
2021/05/29 07:31:55;;;;;;;16.13;4.70;;;23.40;99.90;;;;;;5097762;28;20261;-84
2021/05/29 07:34:22;;;;;;;4.97;4.57;;;23.20;99.90;;;;;;5080094;28;20170;-84
2021/05/29 07:36:48;;;;;;;6.82;4.57;;;23.00;99.90;;;;;;5079934;28;20188;-87
2021/05/29 07:39:13;;;;;;;4.82;4.43;;;22.20;99.90;;;;;;5097233;28;20728;-84
2021/05/29 07:41:39;;;;;;;6.97;4.97;;;22.20;99.90;;;;;;5083895;28;20172;-82
2021/05/29 07:44:07;;;;;;;4.28;3.55;;;22.30;99.90;;;;;;5091343;28;20252;-80
2021/05/29 07:47:06;;;;;;;5.68;4.13;;;21.90;99.90;;;;;;5117697;28;20158;-80
2021/05/29 07:49:36;;;;;;;6.10;4.50;;;21.60;99.90;;;;;;5117997;28;20229;-79
2021/05/29 07:52:12;;;;;;;9.52;5.40;;;21.00;99.90;;;;;;5102169;28;20186;-79
2021/05/29 07:55:06;;;;;;;5.28;4.75;;;20.90;99.90;;;;;;5089926;28;20589;-80
2021/05/29 07:57:36;;;;;;;4.70;4.40;;;20.40;99.90;;;;;;5105179;28;20252;-79
2021/05/29 08:00:06;;;;;;;5.32;4.82;;;20.30;99.90;;;;;;5104412;28;20189;-81
2021/05/29 08:02:31;;;;;;;7.57;4.22;;;20.10;99.90;;;;;;5104885;28;20178;-84
2021/05/29 08:04:57;;;;;;;9.20;4.78;;;19.90;99.90;;;;;;5105316;28;20246;-84
2021/05/29 08:07:23;;;;;;;5.22;4.72;;;19.60;99.90;;;;;;5100215;28;20651;-88
2021/05/29 08:09:49;;;;;;;18.02;4.57;;;19.60;99.90;;;;;;5081878;28;20723;-86
2021/05/29 08:12:14;;;;;;;12.60;4.28;;;19.70;99.90;;;;;;5082110;28;20639;-86
2021/05/29 08:14:40;;;;;;;12.70;6.43;;;19.70;99.90;;;;;;5097009;28;20256;-88
2021/05/29 08:17:07;;;;;;;9.13;6.68;;;19.70;99.90;;;;;;5097867;28;20158;-83
2021/05/29 08:19:33;;;;;;;3.85;3.35;;;19.70;99.90;;;;;;5096963;28;20573;-85
2021/05/29 08:21:59;;;;;;;4.80;4.40;;;19.60;99.90;;;;;;5095542;28;20169;-85
2021/05/29 08:24:25;;;;;;;12.88;4.85;;;19.90;99.90;;;;;;5096566;28;20214;-85
2021/05/29 08:26:51;;;;;;;3.92;3.63;;;20.00;99.90;;;;;;5097401;28;20207;-83
2021/05/29 08:29:17;;;;;;;4.60;4.20;;;19.90;99.90;;;;;;5097223;28;20213;-80
2021/05/29 08:31:43;;;;;;;3.65;3.33;;;19.90;99.90;;;;;;5097606;28;20176;-83
2021/05/29 08:34:09;;;;;;;12.13;5.55;;;19.90;99.90;;;;;;5097794;28;20215;-83
2021/05/29 08:36:39;;;;;;;4.95;2.90;;;20.00;99.90;;;;;;5097587;28;20223;-90
2021/05/29 08:39:07;;;;;;;3.58;3.28;;;20.00;99.90;;;;;;5079734;28;20194;-85
2021/05/29 08:41:32;;;;;;;6.07;3.22;;;20.00;99.90;;;;;;5097967;28;20162;-85
2021/05/29 08:43:59;;;;;;;11.20;4.60;;;19.90;99.90;;;;;;5097662;28;20165;-87
2021/05/29 08:46:25;;;;;;;19.35;5.65;;;19.90;99.90;;;;;;5096361;28;20162;-91
2021/05/29 08:48:54;;;;;;;3.30;3.00;;;19.90;99.90;;;;;;5078296;28;20201;-82
2021/05/29 08:51:21;;;;;;;5.63;2.90;;;20.00;99.90;;;;;;5076948;28;20181;-81
2021/05/29 08:53:58;;;;;;;3.38;2.45;;;19.80;99.90;;;;;;5097575;28;20238;-92
2021/05/29 08:56:26;;;;;;;3.75;3.38;;;19.80;99.90;;;;;;5096918;28;20178;-83
2021/05/29 08:58:52;;;;;;;2.70;2.50;;;19.80;99.90;;;;;;5097115;28;20178;-80
2021/05/29 09:01:20;;;;;;;4.25;2.65;;;19.90;99.90;;;;;;5096787;28;20231;-85
2021/05/29 09:04:03;;;;;;;7.15;3.30;;;19.90;99.90;;;;;;5077908;28;20166;-83
2021/05/29 09:06:34;;;;;;;7.47;2.55;;;20.20;99.90;;;;;;5096793;28;20181;-91
2021/05/29 09:09:04;;;;;;;3.80;2.90;;;20.50;99.90;;;;;;5096507;28;20251;-83
2021/05/29 09:11:48;;;;;;;3.60;2.50;;;20.30;99.90;;;;;;5096873;28;20170;-82
2021/05/29 09:14:26;;;;;;;5.20;3.25;;;20.10;99.90;;;;;;5096266;28;20513;-80
2021/05/29 09:17:15;;;;;;;2.75;2.50;;;20.10;99.90;;;;;;5077198;28;20184;-81
2021/05/29 09:19:56;;;;;;;3.17;2.78;;;20.10;99.90;;;;;;5076604;28;20204;-84
2021/05/29 09:22:52;;;;;;;4.35;2.70;;;20.30;99.90;;;;;;5095763;28;20169;-81
2021/05/29 09:25:22;;;;;;;2.92;2.67;;;20.50;99.90;;;;;;5094931;28;20185;-83
2021/05/29 09:28:00;;;;;;;3.50;3.00;;;20.80;99.90;;;;;;5095121;28;20253;-86
2021/05/29 09:30:47;;;;;;;4.82;2.42;;;20.70;99.90;;;;;;5094552;28;20209;-85
2021/05/29 09:33:27;;;;;;;3.22;2.92;;;20.80;99.90;;;;;;5075974;28;20220;-84
2021/05/29 09:36:01;;;;;;;4.25;2.63;;;21.00;99.90;;;;;;5093715;28;20181;-88
2021/05/29 09:38:47;;;;;;;2.30;2.05;;;21.10;99.90;;;;;;5094513;28;20712;-82
2021/05/29 09:41:28;;;;;;;3.38;2.55;;;21.10;99.90;;;;;;5095232;28;20672;-85
2021/05/29 09:43:59;;;;;;;2.90;2.40;;;21.00;99.90;;;;;;5077848;28;20178;-89
2021/05/29 09:46:27;;;;;;;3.35;2.38;;;20.80;99.90;;;;;;5077440;28;20177;-90
2021/05/29 09:49:01;;;;;;;5.72;2.63;;;20.50;99.90;;;;;;5097306;28;20212;-89
2021/05/29 09:51:31;;;;;;;1.98;1.88;;;20.40;99.90;;;;;;5082141;28;20161;-89
2021/05/29 09:54:04;;;;;;;3.75;2.22;;;20.20;99.90;;;;;;5101151;28;20165;-91
2021/05/29 09:56:34;;;;;;;9.45;3.90;;;20.50;99.90;;;;;;5099556;28;20181;-86
2021/05/29 09:59:20;;;;;;;2.47;2.03;;;20.70;99.90;;;;;;5102848;28;20262;-85
2021/05/29 10:01:49;;;;;;;6.68;2.42;;;20.70;99.90;;;;;;5071762;28;20177;-87
2021/05/29 10:04:20;;;;;;;5.07;1.52;;;20.80;99.90;;;;;;5087426;28;20267;-88
2021/05/29 10:07:00;;;;;;;8.02;1.58;;;21.00;99.90;;;;;;5092053;28;20166;-87
2021/05/29 10:09:28;;;;;;;3.20;2.20;;;21.00;99.90;;;;;;5089692;28;20217;-86
2021/05/29 10:11:54;;;;;;;3.35;1.90;;;21.10;99.90;;;;;;5108326;28;20231;-90
2021/05/29 10:14:23;;;;;;;1.50;1.40;;;21.10;99.90;;;;;;5072768;28;20170;-89
2021/05/29 10:16:50;;;;;;;2.63;1.50;;;21.20;99.90;;;;;;5093317;28;20181;-88
2021/05/29 10:19:20;;;;;;;3.85;1.75;;;21.50;99.80;;;;;;5072756;28;20193;-92
2021/05/29 10:21:51;;;;;;;3.88;1.52;;;21.60;98.20;;;;;;5093314;28;20170;-83
2021/05/29 10:24:19;;;;;;;2.35;1.60;;;21.50;99.00;;;;;;5092853;28;20172;-84
2021/05/29 10:26:50;;;;;;;2.42;1.27;;;21.50;98.20;;;;;;5093732;28;20194;-83
2021/05/29 10:29:23;;;;;;;2.25;1.77;;;21.30;99.10;;;;;;5089510;28;20233;-88
2021/05/29 10:31:48;;;;;;;1.88;1.73;;;21.30;97.40;;;;;;5085819;28;20199;-88
2021/05/29 10:34:14;;;;;;;1.60;1.50;;;21.10;96.80;;;;;;5082746;28;20649;-92
2021/05/29 10:36:44;;;;;;;1.40;1.30;;;21.20;96.40;;;;;;5099782;28;20164;-83
2021/05/29 10:39:31;;;;;;;2.90;1.95;;;21.00;98.30;;;;;;5120249;28;20174;-85
2021/05/29 10:42:05;;;;;;;1.33;1.13;;;20.90;97.90;;;;;;5103701;28;20201;-85
2021/05/29 10:44:30;;;;;;;1.38;1.27;;;21.10;97.80;;;;;;5101736;28;20190;-85
2021/05/29 10:47:19;;;;;;;1.65;1.38;;;21.10;97.90;;;;;;5086897;28;20311;-85
2021/05/29 10:49:48;;;;;;;2.05;1.33;;;21.10;97.20;;;;;;5079122;28;20607;-86
2021/05/29 10:52:37;;;;;;;3.28;1.88;;;21.20;97.00;;;;;;5078594;28;20181;-85
2021/05/29 10:55:09;;;;;;;1.83;1.73;;;21.10;96.90;;;;;;5080946;28;20234;-86
2021/05/29 10:57:54;;;;;;;3.65;1.63;;;21.40;97.00;;;;;;5079868;28;20192;-87
2021/05/29 11:00:35;;;;;;;1.60;1.48;;;21.40;97.10;;;;;;5098143;28;20205;-89
2021/05/29 11:03:16;;;;;;;3.13;1.55;;;21.30;96.80;;;;;;5079878;28;20178;-86
2021/05/29 11:05:46;;;;;;;1.83;1.42;;;21.60;96.20;;;;;;5096686;28;20525;-88
2021/05/29 11:08:44;;;;;;;1.50;1.40;;;21.50;97.20;;;;;;5078607;28;20181;-86
2021/05/29 11:11:37;;;;;;;1.70;1.50;;;21.60;97.60;;;;;;5077868;28;20178;-83
2021/05/29 11:14:04;;;;;;;4.85;1.40;;;21.60;96.10;;;;;;5059849;28;20173;-82
2021/05/29 11:16:54;;;;;;;4.10;1.38;;;21.40;96.70;;;;;;5094608;28;20618;-82
2021/05/29 11:19:23;;;;;;;1.50;1.25;;;21.60;95.10;;;;;;5077549;28;20197;-81
2021/05/29 11:22:15;;;;;;;1.60;1.50;;;21.40;95.50;;;;;;5095389;28;20162;-81
2021/05/29 11:24:44;;;;;;;4.50;1.95;;;21.50;95.70;;;;;;5095367;28;20166;-81
2021/05/29 11:27:24;;;;;;;4.10;1.45;;;21.40;96.30;;;;;;5098984;28;20162;-90
2021/05/29 11:30:18;;;;;;;4.28;1.95;;;21.50;95.50;;;;;;5100356;28;20270;-85
2021/05/29 11:35:37;;;;;;;6.80;1.30;;;21.40;94.60;;;;;;5101237;28;20169;-84
2021/05/29 11:38:17;;;;;;;1.50;1.40;;;21.40;95.80;;;;;;5103445;28;20201;-88
2021/05/29 11:41:11;;;;;;;1.92;1.40;;;21.60;94.10;;;;;;5100680;28;20177;-88
2021/05/29 11:43:43;;;;;;;3.05;1.83;;;21.90;94.70;;;;;;5100332;28;20168;-86
2021/05/29 11:46:12;;;;;;;1.98;1.40;;;21.60;95.00;;;;;;5082100;28;20166;-85
2021/05/29 11:48:39;;;;;;;1.40;1.20;;;21.60;94.80;;;;;;5098900;28;20221;-84
2021/05/29 11:51:10;;;;;;;1.65;1.55;;;21.80;94.90;;;;;;5099486;28;20245;-86
2021/05/29 11:53:37;;;;;;;1.65;1.55;;;21.80;94.60;;;;;;5099833;28;20178;-90
2021/05/29 11:56:05;;;;;;;2.00;1.58;;;21.70;94.50;;;;;;5097868;28;20571;-86
2021/05/29 11:58:49;;;;;;;3.75;1.40;;;21.80;94.70;;;;;;5097159;28;20228;-86
2021/05/29 12:01:18;;;;;;;2.33;1.40;;;22.00;95.60;;;;;;5098694;28;20197;-85
2021/05/29 12:03:48;;;;;;;2.05;1.40;;;21.90;93.00;;;;;;5097312;28;20642;-84
2021/05/29 12:06:43;;;;;;;1.40;1.30;;;21.70;93.60;;;;;;5098494;28;20200;-83
2021/05/29 12:09:17;;;;;;;7.43;2.03;;;21.30;94.10;;;;;;5079463;28;20735;-81
2021/05/29 12:11:45;;;;;;;2.00;1.70;;;21.20;94.30;;;;;;5084088;28;20168;-88
2021/05/29 12:14:30;;;;;;;6.80;1.50;;;21.60;94.70;;;;;;5102304;28;20272;-88
2021/05/29 12:17:00;;;;;;;1.60;1.40;;;21.90;94.20;;;;;;5085685;28;20502;-93
2021/05/29 12:19:45;;;;;;;1.60;1.50;;;22.10;95.00;;;;;;5103673;28;20193;-90
2021/05/29 12:22:19;;;;;;;1.85;1.75;;;22.20;95.20;;;;;;5101157;28;20285;-94
2021/05/29 12:25:07;;;;;;;2.03;1.83;;;21.90;94.30;;;;;;5085480;28;20158;-94
2021/05/29 12:27:41;;;;;;;3.58;1.73;;;21.70;95.00;;;;;;5068755;28;20184;-87
2021/05/29 12:30:09;;;;;;;2.30;2.03;;;21.90;94.90;;;;;;5103230;28;20270;-89
2021/05/29 12:32:38;;;;;;;2.67;1.75;;;21.90;94.30;;;;;;5085916;28;20168;-82
2021/05/29 12:35:10;;;;;;;1.58;1.48;;;21.80;94.80;;;;;;5104091;28;20206;-87
2021/05/29 12:37:37;;;;;;;2.20;1.90;;;21.70;94.90;;;;;;5079046;28;20219;-88
2021/05/29 12:40:10;;;;;;;2.03;1.83;;;21.80;94.80;;;;;;5097714;28;20181;-90
2021/05/29 12:42:39;;;;;;;8.10;3.22;;;21.80;94.10;;;;;;5099301;28;20166;-86
2021/05/29 12:45:09;;;;;;;3.53;1.92;;;21.80;95.00;;;;;;5102249;28;20253;-83
2021/05/29 12:47:37;;;;;;;2.92;1.60;;;21.90;93.80;;;;;;5099710;28;20241;-86
2021/05/29 12:50:14;;;;;;;3.17;1.80;;;21.80;93.30;;;;;;5082216;28;20225;-89
2021/05/29 12:52:41;;;;;;;2.13;1.75;;;21.80;94.20;;;;;;5100157;28;20181;-87
2021/05/29 12:55:16;;;;;;;2.55;1.70;;;21.70;94.20;;;;;;5085352;28;20170;-85
2021/05/29 12:57:44;;;;;;;15.23;2.00;;;21.50;94.50;;;;;;5105807;28;20227;-84
2021/05/29 13:00:47;;;;;;;8.60;1.30;;;21.50;94.50;;;;;;5091336;28;20189;-90
2021/05/29 13:09:18;;;;;;;2.10;1.90;;;21.80;94.70;;;;;;5108450;28;20220;-88
2021/05/29 13:11:45;;;;;;;2.20;1.90;;;21.70;93.70;;;;;;5091341;28;20188;-89
2021/05/29 13:14:28;;;;;;;2.88;2.65;;;21.90;94.10;;;;;;5074812;28;20161;-85
2021/05/29 13:16:59;;;;;;;2.60;2.20;;;22.00;95.10;;;;;;5074329;28;20185;-84